createdAt,value
2023-02-19T00:01:25.470Z,82.99
2023-02-19T00:02:57.790Z,82.42
2023-02-19T00:04:29.515Z,82.22
2023-02-19T00:06:03.408Z,81.88
2023-02-19T00:07:35.011Z,81.86
2023-02-19T00:09:06.589Z,82.46
2023-02-19T00:10:38.082Z,82.23
2023-02-19T00:12:09.748Z,81.94
2023-02-19T00:13:42.107Z,82.81
2023-02-19T00:15:13.660Z,82.03
2023-02-19T00:16:45.641Z,82.63
2023-02-19T00:18:17.165Z,82.37
2023-02-19T00:19:48.707Z,81.76
2023-02-19T00:21:22.088Z,82.30
2023-02-19T00:22:53.594Z,82.19
2023-02-19T00:24:25.158Z,82.48
2023-02-19T00:26:01.005Z,81.96
2023-02-19T00:27:34.836Z,82.48
2023-02-19T00:29:06.495Z,81.77
2023-02-19T00:30:38.104Z,81.58
2023-02-19T00:32:09.706Z,82.23
2023-02-19T00:33:41.440Z,81.72
2023-02-19T00:35:13.000Z,82.69
2023-02-19T00:36:46.056Z,82.79
2023-02-19T00:38:17.632Z,82.98
2023-02-19T00:39:49.179Z,82.14
2023-02-19T00:41:22.690Z,82.93
2023-02-19T00:42:54.313Z,82.31
2023-02-19T00:44:25.918Z,82.86
2023-02-19T00:45:57.552Z,82.47
2023-02-19T00:47:29.108Z,82.74
2023-02-19T00:49:00.728Z,82.96
2023-02-19T00:50:32.338Z,83.01
2023-02-19T00:52:05.390Z,83.00
2023-02-19T00:53:37.019Z,83.23
2023-02-19T00:55:08.568Z,82.55
2023-02-19T00:56:40.243Z,82.86
2023-02-19T00:58:11.812Z,82.23
2023-02-19T00:59:43.555Z,82.12
2023-02-19T01:01:15.828Z,82.51
2023-02-19T01:02:47.443Z,81.82
2023-02-19T01:04:19.059Z,81.64
2023-02-19T01:05:51.067Z,80.91
2023-02-19T01:07:24.404Z,81.76
2023-02-19T01:08:56.449Z,81.54
2023-02-19T01:10:28.048Z,81.77
2023-02-19T01:11:59.671Z,81.55
2023-02-19T01:13:31.530Z,81.45
2023-02-19T01:15:03.572Z,81.16
2023-02-19T01:16:35.303Z,81.19
2023-02-19T01:18:13.520Z,81.10
2023-02-19T01:19:45.157Z,80.91
2023-02-19T01:21:17.732Z,80.47
2023-02-19T01:22:52.621Z,80.87
2023-02-19T01:24:24.191Z,81.35
2023-02-19T01:25:55.796Z,80.95
2023-02-19T01:27:27.367Z,81.24
2023-02-19T01:28:59.274Z,80.50
2023-02-19T01:30:30.922Z,79.95
2023-02-19T01:32:02.624Z,80.05
2023-02-19T01:33:34.496Z,80.32
2023-02-19T01:35:06.900Z,80.49
2023-02-19T01:36:38.860Z,80.59
2023-02-19T01:38:14.039Z,79.93
2023-02-19T01:39:45.655Z,80.34
2023-02-19T01:41:18.257Z,80.40
2023-02-19T01:42:49.863Z,79.44
2023-02-19T01:44:40.144Z,79.61
2023-02-19T01:46:11.728Z,79.48
2023-02-19T01:47:43.370Z,79.57
2023-02-19T01:49:18.630Z,79.56
2023-02-19T01:50:53.553Z,79.81
2023-02-19T01:52:27.613Z,80.06
2023-02-19T01:54:02.607Z,79.94
2023-02-19T01:55:34.865Z,79.71
2023-02-19T01:57:08.106Z,79.21
2023-02-19T01:58:40.208Z,79.47
2023-02-19T02:00:15.164Z,80.55
2023-02-19T02:01:46.871Z,80.93
2023-02-19T02:03:19.117Z,81.06
2023-02-19T02:04:50.822Z,81.44
2023-02-19T02:06:23.823Z,81.84
2023-02-19T02:08:14.246Z,81.64
2023-02-19T02:10:06.122Z,82.21
2023-02-19T02:11:39.273Z,81.94
2023-02-19T02:13:10.872Z,83.13
2023-02-19T02:14:44.335Z,83.01
2023-02-19T02:16:23.671Z,84.07
2023-02-19T02:17:57.367Z,83.29
2023-02-19T02:19:40.540Z,84.12
2023-02-19T02:21:25.802Z,84.67
2023-02-19T02:23:00.684Z,84.19
2023-02-19T02:24:42.294Z,85.00
2023-02-19T02:26:24.323Z,84.54
2023-02-19T02:28:02.598Z,85.22
2023-02-19T02:29:54.690Z,85.34
2023-02-19T02:31:28.948Z,85.00
2023-02-19T02:33:04.635Z,85.04
2023-02-19T02:34:41.082Z,85.30
2023-02-19T02:36:15.278Z,85.19
2023-02-19T02:37:48.540Z,84.95
2023-02-19T02:39:21.908Z,84.82
2023-02-19T02:40:54.254Z,84.52
2023-02-19T02:42:28.718Z,84.71
2023-02-19T02:44:08.343Z,84.21
2023-02-19T02:45:41.762Z,83.68
2023-02-19T02:47:44.886Z,83.65
2023-02-19T02:49:19.815Z,84.15
2023-02-19T02:50:53.858Z,83.80
2023-02-19T02:52:44.346Z,83.67
2023-02-19T02:54:36.937Z,83.93
2023-02-19T02:56:13.664Z,84.55
2023-02-19T02:57:45.507Z,84.38
2023-02-19T02:59:18.900Z,84.58
2023-02-19T03:01:13.618Z,84.04
2023-02-19T03:02:45.491Z,85.01
2023-02-19T03:04:21.511Z,83.99
2023-02-19T03:05:56.590Z,85.37
2023-02-19T03:07:31.196Z,85.66
2023-02-19T03:09:07.791Z,85.24
2023-02-19T03:10:41.460Z,85.87
2023-02-19T03:12:33.195Z,85.31
2023-02-19T03:14:27.094Z,85.33
2023-02-19T03:16:21.361Z,84.85
2023-02-19T03:18:13.972Z,84.18
2023-02-19T03:19:50.011Z,84.04
2023-02-19T03:21:23.353Z,83.87
2023-02-19T03:22:56.053Z,84.43
2023-02-19T03:24:47.997Z,83.83
2023-02-19T03:26:19.836Z,84.63
2023-02-19T03:27:57.609Z,84.52
2023-02-19T03:29:31.800Z,83.61
2023-02-19T03:31:10.153Z,83.85
2023-02-19T03:32:44.411Z,84.15
2023-02-19T03:34:20.675Z,83.78
2023-02-19T03:35:55.729Z,83.28
2023-02-19T03:37:30.073Z,83.39
2023-02-19T03:39:04.395Z,83.73
2023-02-19T03:40:40.439Z,83.46
2023-02-19T03:42:18.034Z,83.60
2023-02-19T03:43:52.673Z,82.86
2023-02-19T03:45:29.877Z,82.75
2023-02-19T03:47:06.923Z,83.02
2023-02-19T03:48:46.268Z,82.66
2023-02-19T03:50:19.644Z,83.42
2023-02-19T03:51:55.212Z,83.55
2023-02-19T03:53:29.973Z,83.58
2023-02-19T03:55:04.539Z,83.11
2023-02-19T03:56:39.402Z,82.48
2023-02-19T03:58:17.603Z,82.63
2023-02-19T03:59:51.622Z,82.40
2023-02-19T04:01:27.934Z,82.25
2023-02-19T04:03:05.695Z,81.73
2023-02-19T04:04:39.640Z,82.74
2023-02-19T04:06:13.871Z,81.58
2023-02-19T04:07:48.014Z,81.30
2023-02-19T04:09:25.595Z,81.68
2023-02-19T04:11:04.635Z,81.87
2023-02-19T04:12:40.286Z,81.59
2023-02-19T04:14:14.485Z,81.53
2023-02-19T04:15:47.835Z,80.77
2023-02-19T04:17:26.527Z,81.16
2023-02-19T04:19:02.344Z,80.66
2023-02-19T04:20:36.388Z,80.10
2023-02-19T04:22:09.660Z,81.18
2023-02-19T04:23:43.364Z,81.46
2023-02-19T04:25:15.072Z,80.35
2023-02-19T04:26:47.138Z,80.22
2023-02-19T04:28:18.941Z,80.70
2023-02-19T04:29:50.512Z,80.58
2023-02-19T04:31:23.405Z,80.94
2023-02-19T04:32:55.248Z,81.05
2023-02-19T04:34:28.219Z,80.81
2023-02-19T04:36:00.121Z,80.90
2023-02-19T04:37:31.694Z,81.21
2023-02-19T04:39:03.321Z,81.36
2023-02-19T04:40:34.871Z,81.81
2023-02-19T04:42:07.689Z,80.94
2023-02-19T04:43:39.269Z,80.85
2023-02-19T04:45:10.849Z,81.19
2023-02-19T04:46:44.576Z,81.44
2023-02-19T04:48:16.167Z,81.04
2023-02-19T04:49:51.198Z,81.99
2023-02-19T04:51:24.507Z,81.95
2023-02-19T04:52:56.412Z,81.52
2023-02-19T04:54:27.944Z,81.80
2023-02-19T04:56:05.986Z,81.99
2023-02-19T04:57:37.539Z,82.03
2023-02-19T04:59:09.793Z,83.11
2023-02-19T05:00:41.416Z,82.60
2023-02-19T05:02:12.971Z,82.95
2023-02-19T05:03:44.762Z,82.50
2023-02-19T05:05:17.892Z,82.76
2023-02-19T05:06:49.821Z,82.84
2023-02-19T05:08:21.606Z,81.92
2023-02-19T05:09:53.156Z,82.72
2023-02-19T05:11:24.893Z,82.71
2023-02-19T05:12:58.025Z,82.29
2023-02-19T05:14:29.920Z,81.99
2023-02-19T05:16:02.428Z,81.86
2023-02-19T05:17:34.509Z,82.27
2023-02-19T05:19:06.109Z,82.18
2023-02-19T05:20:39.064Z,82.45
2023-02-19T05:22:10.592Z,82.63
2023-02-19T05:23:42.525Z,82.62
2023-02-19T05:25:14.162Z,82.16
2023-02-19T05:26:45.743Z,82.47
2023-02-19T05:28:17.579Z,82.46
2023-02-19T05:29:49.132Z,83.33
2023-02-19T05:31:21.198Z,82.92
2023-02-19T05:32:52.885Z,82.44
2023-02-19T05:34:24.390Z,81.86
2023-02-19T05:35:57.324Z,82.27
2023-02-19T05:37:28.968Z,82.60
2023-02-19T05:39:00.659Z,83.25
2023-02-19T05:40:32.196Z,83.78
2023-02-19T05:42:03.888Z,83.08
2023-02-19T05:43:35.534Z,83.49
2023-02-19T05:45:07.671Z,83.12
2023-02-19T05:46:39.363Z,82.65
2023-02-19T05:48:10.997Z,83.27
2023-02-19T05:49:42.549Z,82.86
2023-02-19T05:51:16.593Z,82.58
2023-02-19T05:52:48.170Z,83.40
2023-02-19T05:54:19.678Z,82.70
2023-02-19T05:55:51.209Z,83.13
2023-02-19T05:57:22.803Z,83.02
2023-02-19T05:58:54.841Z,82.62
2023-02-19T06:00:27.350Z,82.31
2023-02-19T06:01:58.938Z,82.67
2023-02-19T06:03:30.511Z,82.80
2023-02-19T06:05:02.218Z,82.81
2023-02-19T06:06:35.254Z,83.33
2023-02-19T06:08:06.869Z,83.20
2023-02-19T06:09:38.412Z,82.34
2023-02-19T06:11:10.391Z,83.25
2023-02-19T06:12:42.056Z,82.42
2023-02-19T06:14:13.971Z,82.60
2023-02-19T06:15:45.583Z,82.40
2023-02-19T06:17:17.494Z,81.42
2023-02-19T06:18:49.477Z,81.92
2023-02-19T06:20:21.025Z,82.24
2023-02-19T06:21:53.943Z,82.53
2023-02-19T06:23:27.438Z,82.34
2023-02-19T06:24:58.942Z,82.36
2023-02-19T06:26:30.490Z,82.73
2023-02-19T06:28:02.089Z,82.28
2023-02-19T06:29:33.687Z,82.80
2023-02-19T06:31:05.547Z,82.45
2023-02-19T06:32:37.210Z,82.09
2023-02-19T06:34:08.743Z,82.43
2023-02-19T06:35:40.319Z,81.71
2023-02-19T06:37:13.195Z,81.88
2023-02-19T06:38:44.744Z,81.83
2023-02-19T06:40:16.734Z,81.93
2023-02-19T06:41:48.335Z,81.90
2023-02-19T06:43:19.883Z,81.96
2023-02-19T06:44:51.443Z,81.57
2023-02-19T06:46:22.994Z,81.86
2023-02-19T06:47:54.607Z,82.35
2023-02-19T06:49:26.290Z,82.02
2023-02-19T06:50:58.152Z,82.10
2023-02-19T06:52:31.122Z,81.59
2023-02-19T06:54:02.721Z,81.24
2023-02-19T06:55:34.262Z,81.29
2023-02-19T06:57:05.832Z,81.80
2023-02-19T06:58:37.483Z,81.90
2023-02-19T07:00:10.127Z,81.24
2023-02-19T07:01:41.691Z,81.10
2023-02-19T07:03:13.251Z,81.41
2023-02-19T07:04:44.791Z,80.79
2023-02-19T07:06:16.350Z,80.42
2023-02-19T07:07:49.464Z,81.18
2023-02-19T07:09:21.321Z,80.75
2023-02-19T07:10:56.537Z,81.28
2023-02-19T07:12:28.146Z,81.19
2023-02-19T07:14:00.868Z,81.17
2023-02-19T07:15:32.452Z,81.38
2023-02-19T07:17:03.991Z,81.30
2023-02-19T07:18:35.566Z,81.18
2023-02-19T07:20:07.256Z,81.37
2023-02-19T07:21:39.128Z,82.28
2023-02-19T07:23:12.087Z,82.12
2023-02-19T07:24:43.655Z,81.32
2023-02-19T07:26:16.509Z,81.05
2023-02-19T07:27:48.098Z,81.13
2023-02-19T07:29:19.709Z,80.51
2023-02-19T07:30:51.320Z,80.14
2023-02-19T07:32:22.852Z,80.13
2023-02-19T07:33:55.002Z,80.50
2023-02-19T07:35:26.847Z,80.43
2023-02-19T07:36:58.415Z,79.76
2023-02-19T07:38:31.391Z,79.33
2023-02-19T07:40:03.453Z,79.72
2023-02-19T07:41:35.071Z,80.33
2023-02-19T07:43:06.591Z,79.73
2023-02-19T07:44:38.152Z,80.08
2023-02-19T07:46:11.450Z,80.18
2023-02-19T07:47:43.766Z,80.47
2023-02-19T07:49:15.432Z,79.76
2023-02-19T07:50:51.268Z,80.45
2023-02-19T07:52:22.925Z,80.02
2023-02-19T07:53:55.833Z,80.64
2023-02-19T07:55:27.382Z,80.29
2023-02-19T07:56:59.754Z,80.49
2023-02-19T07:58:31.948Z,80.98
2023-02-19T08:00:03.795Z,81.21
2023-02-19T08:02:02.825Z,81.32
2023-02-19T08:03:34.476Z,80.87
2023-02-19T08:05:06.542Z,81.24
2023-02-19T08:06:38.630Z,81.15
2023-02-19T08:08:11.139Z,81.31
2023-02-19T08:09:44.190Z,81.21
2023-02-19T08:11:34.024Z,80.33
2023-02-19T08:13:22.394Z,80.88
2023-02-19T08:14:53.951Z,80.74
2023-02-19T08:16:41.934Z,80.23
2023-02-19T08:18:14.933Z,80.42
2023-02-19T08:19:46.556Z,79.23
2023-02-19T08:21:18.393Z,79.48
2023-02-19T08:22:50.042Z,79.07
2023-02-19T08:24:21.607Z,79.16
2023-02-19T08:25:57.270Z,79.06
2023-02-19T08:27:28.859Z,78.94
2023-02-19T08:29:00.566Z,78.33
2023-02-19T08:30:33.393Z,78.47
2023-02-19T08:32:05.263Z,78.32
2023-02-19T08:33:37.702Z,78.87
2023-02-19T08:35:09.371Z,78.65
2023-02-19T08:36:40.968Z,78.92
2023-02-19T08:38:13.415Z,78.03
2023-02-19T08:39:44.984Z,77.85
2023-02-19T08:41:17.967Z,78.25
2023-02-19T08:42:49.545Z,77.70
2023-02-19T08:44:21.307Z,78.37
2023-02-19T08:45:53.671Z,77.41
2023-02-19T08:47:25.508Z,77.48
2023-02-19T08:48:57.049Z,77.90
2023-02-19T08:50:28.637Z,77.29
2023-02-19T08:52:00.223Z,77.39
2023-02-19T08:53:32.464Z,77.44
2023-02-19T08:55:04.149Z,76.86
2023-02-19T08:56:37.298Z,77.56
2023-02-19T08:58:10.443Z,75.28
2023-02-19T08:59:42.093Z,75.96
2023-02-19T09:01:15.286Z,75.64
2023-02-19T09:02:47.062Z,76.45
2023-02-19T09:04:18.747Z,75.72
2023-02-19T09:05:52.262Z,75.72
2023-02-19T09:07:23.830Z,77.10
2023-02-19T09:08:55.440Z,77.14
2023-02-19T09:10:27.030Z,76.96
2023-02-19T09:11:59.946Z,77.74
2023-02-19T09:13:31.594Z,77.08
2023-02-19T09:15:03.799Z,77.20
2023-02-19T09:16:35.489Z,77.00
2023-02-19T09:18:07.114Z,76.48
2023-02-19T09:19:38.897Z,76.71
2023-02-19T09:21:10.971Z,77.39
2023-02-19T09:22:42.768Z,76.98
2023-02-19T09:24:14.635Z,76.66
2023-02-19T09:25:46.329Z,76.46
2023-02-19T09:27:19.831Z,76.12
2023-02-19T09:28:51.458Z,77.14
2023-02-19T09:30:23.423Z,76.83
2023-02-19T09:31:58.873Z,76.94
2023-02-19T09:33:30.520Z,76.46
2023-02-19T09:35:02.115Z,75.39
2023-02-19T09:36:33.851Z,76.30
2023-02-19T09:38:05.495Z,76.16
2023-02-19T09:39:37.135Z,76.48
2023-02-19T09:41:44.797Z,76.45
2023-02-19T09:43:20.619Z,76.42
2023-02-19T09:44:53.171Z,76.14
2023-02-19T09:46:29.037Z,77.11
2023-02-19T09:48:00.740Z,76.57
2023-02-19T09:49:33.943Z,77.21
2023-02-19T09:51:09.496Z,78.20
2023-02-19T09:52:44.102Z,77.35
2023-02-19T09:54:20.034Z,79.27
2023-02-19T09:55:52.470Z,78.20
2023-02-19T09:57:25.782Z,78.34
2023-02-19T09:58:59.514Z,78.35
2023-02-19T10:00:32.892Z,78.66
2023-02-19T10:02:05.456Z,78.99
2023-02-19T10:03:39.267Z,78.65
2023-02-19T10:05:12.741Z,79.06
2023-02-19T10:06:44.483Z,79.21
2023-02-19T10:08:18.818Z,78.12
2023-02-19T10:09:52.706Z,78.49
2023-02-19T10:11:25.796Z,79.22
2023-02-19T10:13:02.020Z,79.55
2023-02-19T10:14:37.437Z,80.10
2023-02-19T10:16:15.342Z,79.36
2023-02-19T10:17:46.945Z,78.86
2023-02-19T10:19:18.516Z,78.72
2023-02-19T10:20:51.319Z,78.92
2023-02-19T10:22:22.996Z,79.44
2023-02-19T10:23:55.848Z,79.54
2023-02-19T10:25:27.668Z,79.89
2023-02-19T10:26:59.240Z,78.59
2023-02-19T10:28:33.597Z,79.15
2023-02-19T10:30:07.356Z,77.59
2023-02-19T10:31:39.529Z,76.92
2023-02-19T10:33:12.876Z,77.40
2023-02-19T10:34:44.581Z,75.85
2023-02-19T10:36:20.046Z,76.04
2023-02-19T10:37:52.469Z,75.94
2023-02-19T10:39:37.684Z,77.10
2023-02-19T10:41:13.410Z,76.39
2023-02-19T10:42:46.407Z,75.46
2023-02-19T10:44:18.852Z,74.79
2023-02-19T10:45:52.986Z,76.10
2023-02-19T10:47:26.308Z,75.33
2023-02-19T10:48:59.330Z,75.48
2023-02-19T10:50:31.749Z,76.43
2023-02-19T10:52:17.430Z,75.81
2023-02-19T10:53:50.343Z,75.59
2023-02-19T10:55:26.701Z,75.37
2023-02-19T10:57:13.136Z,75.67
2023-02-19T10:58:45.042Z,74.70
2023-02-19T11:00:22.719Z,74.15
2023-02-19T11:01:57.347Z,74.19
2023-02-19T11:03:29.457Z,74.48
2023-02-19T11:05:16.105Z,75.27
2023-02-19T11:06:48.172Z,75.27
2023-02-19T11:08:22.311Z,76.40
2023-02-19T11:09:54.026Z,77.11
2023-02-19T11:11:30.688Z,77.29
2023-02-19T11:13:04.060Z,76.75
2023-02-19T11:14:35.928Z,76.54
2023-02-19T11:16:07.556Z,76.19
2023-02-19T11:17:41.950Z,76.34
2023-02-19T11:19:31.085Z,76.33
2023-02-19T11:21:04.101Z,76.20
2023-02-19T11:22:37.814Z,76.88
2023-02-19T11:24:21.615Z,75.49
2023-02-19T11:25:54.317Z,75.13
2023-02-19T11:27:25.959Z,75.32
2023-02-19T11:28:58.482Z,76.07
2023-02-19T11:30:37.653Z,74.85
2023-02-19T11:32:26.262Z,74.42
2023-02-19T11:34:00.223Z,74.29
2023-02-19T11:35:31.794Z,74.40
2023-02-19T11:37:13.479Z,74.50
2023-02-19T11:38:45.121Z,73.19
2023-02-19T11:40:16.768Z,74.38
2023-02-19T11:41:56.406Z,74.13
2023-02-19T11:43:40.041Z,73.83
2023-02-19T11:45:25.514Z,73.28
2023-02-19T11:47:02.951Z,72.54
2023-02-19T11:48:41.845Z,72.46
2023-02-19T11:50:19.396Z,72.60
2023-02-19T11:52:10.903Z,72.33
2023-02-19T11:53:48.701Z,71.83
2023-02-19T11:55:24.180Z,72.00
2023-02-19T11:57:03.051Z,71.97
2023-02-19T11:58:42.964Z,71.63
2023-02-19T12:00:25.205Z,72.23
2023-02-19T12:02:07.865Z,71.93
2023-02-19T12:03:48.310Z,71.89
2023-02-19T12:05:29.656Z,72.60
2023-02-19T12:07:09.100Z,72.11
2023-02-19T12:08:52.187Z,71.98
2023-02-19T12:10:26.654Z,72.48
2023-02-19T12:12:04.395Z,71.29
2023-02-19T12:13:43.829Z,72.05
2023-02-19T12:15:24.850Z,71.69
2023-02-19T12:17:01.935Z,72.22
2023-02-19T12:18:48.468Z,71.68
2023-02-19T12:20:26.665Z,72.18
2023-02-19T12:22:10.975Z,72.77
2023-02-19T12:23:53.123Z,72.18
2023-02-19T12:25:38.431Z,72.24
2023-02-19T12:27:17.137Z,72.67
2023-02-19T12:29:00.744Z,71.30
2023-02-19T12:30:40.485Z,70.77
2023-02-19T12:32:16.698Z,71.24
2023-02-19T12:34:05.902Z,70.99
2023-02-19T12:35:47.709Z,70.84
2023-02-19T12:37:30.455Z,71.41
2023-02-19T12:39:07.210Z,71.57
2023-02-19T12:40:48.189Z,70.55
2023-02-19T12:42:25.138Z,69.95
2023-02-19T12:44:00.239Z,69.95
2023-02-19T12:45:35.729Z,69.53
2023-02-19T12:47:13.070Z,69.65
2023-02-19T12:48:47.472Z,68.78
2023-02-19T12:50:21.601Z,68.84
2023-02-19T12:51:57.463Z,68.39
2023-02-19T12:53:35.569Z,69.18
2023-02-19T12:55:13.913Z,67.64
2023-02-19T12:56:48.667Z,67.54
2023-02-19T12:58:23.651Z,67.50
2023-02-19T13:00:00.204Z,67.64
2023-02-19T13:01:35.193Z,67.68
2023-02-19T13:03:12.936Z,67.84
2023-02-19T13:04:47.362Z,68.07
2023-02-19T13:06:24.270Z,68.05
2023-02-19T13:07:58.507Z,68.26
2023-02-19T13:09:35.683Z,68.24
2023-02-19T13:11:10.828Z,68.26
2023-02-19T13:12:44.146Z,68.66
2023-02-19T13:14:20.126Z,68.82
2023-02-19T13:15:53.671Z,68.26
2023-02-19T13:17:27.630Z,69.00
2023-02-19T13:19:00.502Z,69.23
2023-02-19T13:20:34.485Z,69.80
2023-02-19T13:22:34.162Z,69.71
2023-02-19T13:24:08.737Z,69.54
2023-02-19T13:25:48.219Z,69.15
2023-02-19T13:27:37.167Z,69.27
2023-02-19T13:29:15.486Z,69.36
2023-02-19T13:31:02.471Z,69.91
2023-02-19T13:32:44.681Z,70.10
2023-02-19T13:34:22.514Z,69.89
2023-02-19T13:36:05.898Z,69.81
2023-02-19T13:37:37.650Z,70.29
2023-02-19T13:40:54.706Z,69.24
2023-02-19T13:42:27.240Z,69.54
2023-02-19T13:44:01.296Z,69.91
2023-02-19T13:45:34.622Z,69.51
2023-02-19T13:47:26.151Z,70.06
2023-02-19T13:49:16.526Z,69.82
2023-02-19T13:50:48.078Z,69.43
2023-02-19T13:52:38.019Z,68.95
2023-02-19T13:54:24.142Z,69.22
2023-02-19T13:55:57.084Z,68.45
2023-02-19T13:57:29.099Z,68.65
2023-02-19T13:59:13.487Z,68.59
2023-02-19T14:00:49.462Z,68.49
2023-02-19T14:02:26.686Z,68.18
2023-02-19T14:04:07.360Z,68.53
2023-02-19T14:05:58.786Z,69.12
2023-02-19T14:07:45.246Z,69.19
2023-02-19T14:09:31.624Z,68.84
2023-02-19T14:11:05.406Z,68.23
2023-02-19T14:12:37.454Z,68.08
2023-02-19T14:14:24.605Z,67.48
2023-02-19T14:15:56.263Z,67.62
2023-02-19T14:17:28.570Z,67.48
2023-02-19T14:19:00.126Z,67.27
2023-02-19T14:20:42.149Z,67.08
2023-02-19T14:22:32.313Z,66.63
2023-02-19T14:24:04.490Z,65.97
2023-02-19T14:25:47.542Z,67.10
2023-02-19T14:27:20.991Z,67.32
2023-02-19T14:28:53.099Z,67.80
2023-02-19T14:30:24.751Z,68.24
2023-02-19T14:31:57.617Z,68.37
2023-02-19T14:33:30.304Z,68.60
2023-02-19T14:35:01.928Z,68.71
2023-02-19T14:36:35.881Z,69.04
2023-02-19T14:38:14.176Z,69.27
2023-02-19T14:39:46.956Z,69.44
2023-02-19T14:41:20.130Z,70.27
2023-02-19T14:42:57.269Z,69.68
2023-02-19T14:44:30.160Z,70.41
2023-02-19T14:46:04.446Z,69.99
2023-02-19T14:47:37.048Z,70.11
2023-02-19T14:49:14.758Z,69.48
2023-02-19T14:50:48.171Z,69.69
2023-02-19T14:52:23.431Z,69.52
2023-02-19T14:53:55.719Z,69.36
2023-02-19T14:55:29.546Z,69.14
2023-02-19T14:57:02.871Z,68.77
2023-02-19T14:58:36.988Z,69.13
2023-02-19T15:00:21.558Z,68.54
2023-02-19T15:02:00.498Z,68.86
2023-02-19T15:03:34.318Z,69.55
2023-02-19T15:05:14.559Z,70.01
2023-02-19T15:06:46.170Z,69.71
2023-02-19T15:08:22.179Z,70.19
2023-02-19T15:09:57.093Z,70.72
2023-02-19T15:11:31.922Z,70.13
2023-02-19T15:13:05.143Z,70.42
2023-02-19T15:14:39.374Z,69.96
2023-02-19T15:16:11.196Z,69.72
2023-02-19T15:17:42.817Z,69.57
2023-02-19T15:19:16.334Z,70.02
2023-02-19T15:20:48.682Z,69.89
2023-02-19T15:22:21.608Z,69.33
2023-02-19T15:23:54.780Z,69.29
2023-02-19T15:25:29.826Z,69.35
2023-02-19T15:27:01.484Z,69.68
2023-02-19T15:28:34.288Z,70.04
2023-02-19T15:30:18.763Z,69.91
2023-02-19T15:31:51.330Z,69.68
2023-02-19T15:33:23.073Z,70.05
2023-02-19T15:34:55.485Z,69.94
2023-02-19T15:36:29.911Z,69.63
2023-02-19T15:38:01.515Z,70.08
2023-02-19T15:39:34.447Z,70.05
2023-02-19T15:41:06.082Z,70.67
2023-02-19T15:42:38.107Z,71.08
2023-02-19T15:44:15.113Z,71.61
2023-02-19T15:45:48.598Z,71.34
2023-02-19T15:47:24.595Z,71.43
2023-02-19T15:49:00.856Z,72.24
2023-02-19T15:50:33.648Z,71.82
2023-02-19T15:52:07.509Z,72.15
2023-02-19T15:53:41.656Z,72.70
2023-02-19T15:55:22.681Z,72.39
2023-02-19T15:56:56.328Z,71.85
2023-02-19T15:58:31.192Z,72.15
2023-02-19T16:00:06.034Z,71.78
2023-02-19T16:01:46.304Z,71.72
2023-02-19T16:03:19.865Z,72.05
2023-02-19T16:04:51.496Z,71.61
2023-02-19T16:06:24.017Z,71.30
2023-02-19T16:08:06.045Z,71.97
2023-02-19T16:09:38.503Z,71.99
2023-02-19T16:11:25.025Z,72.36
2023-02-19T16:13:00.701Z,72.59
2023-02-19T16:14:33.471Z,72.37
2023-02-19T16:16:15.326Z,72.31
2023-02-19T16:17:48.666Z,73.21
2023-02-19T16:19:21.738Z,73.26
2023-02-19T16:20:53.414Z,72.85
2023-02-19T16:22:26.690Z,72.95
2023-02-19T16:24:04.097Z,73.65
2023-02-19T16:25:41.781Z,73.49
2023-02-19T16:27:14.464Z,73.35
2023-02-19T16:28:56.052Z,73.44
2023-02-19T16:30:29.936Z,71.26
2023-02-19T16:32:02.834Z,71.62
2023-02-19T16:33:37.522Z,70.50
2023-02-19T16:35:23.900Z,70.44
2023-02-19T16:36:55.412Z,70.10
2023-02-19T16:38:27.006Z,68.79
2023-02-19T16:40:21.658Z,68.56
2023-02-19T16:42:14.561Z,68.36
2023-02-19T16:43:46.169Z,68.13
2023-02-19T16:45:17.837Z,68.36
2023-02-19T16:46:50.030Z,68.07
2023-02-19T16:48:22.193Z,67.89
2023-02-19T16:49:55.793Z,67.39
2023-02-19T16:51:27.828Z,67.95
2023-02-19T16:53:00.235Z,68.17
2023-02-19T16:54:31.898Z,67.60
2023-02-19T16:56:03.928Z,67.97
2023-02-19T16:57:35.481Z,67.74
2023-02-19T16:59:07.958Z,68.09
2023-02-19T17:00:40.347Z,68.32
2023-02-19T17:02:16.300Z,68.70
2023-02-19T17:03:48.350Z,68.71
2023-02-19T17:05:22.168Z,69.32
2023-02-19T17:06:53.743Z,69.36
2023-02-19T17:08:31.305Z,69.39
2023-02-19T17:10:02.997Z,69.85
2023-02-19T17:11:34.889Z,70.02
2023-02-19T17:13:06.575Z,70.04
2023-02-19T17:14:38.512Z,69.96
2023-02-19T17:16:16.924Z,70.39
2023-02-19T17:17:49.556Z,70.05
2023-02-19T17:19:22.536Z,69.48
2023-02-19T17:21:01.574Z,69.55
2023-02-19T17:22:33.568Z,69.19
2023-02-19T17:24:05.568Z,69.08
2023-02-19T17:25:37.284Z,69.59
2023-02-19T17:27:10.520Z,69.23
2023-02-19T17:28:42.039Z,69.63
2023-02-19T17:30:16.624Z,69.74
2023-02-19T17:31:51.905Z,69.58
2023-02-19T17:33:23.616Z,68.98
2023-02-19T17:34:55.210Z,68.58
2023-02-19T17:36:31.754Z,68.65
2023-02-19T17:38:09.463Z,68.15
2023-02-19T17:39:41.112Z,68.02
2023-02-19T17:41:12.915Z,67.75
2023-02-19T17:42:44.569Z,67.52
2023-02-19T17:44:16.214Z,67.82
2023-02-19T17:45:47.859Z,67.68
2023-02-19T17:47:19.505Z,67.73
2023-02-19T17:48:51.488Z,68.37
2023-02-19T17:50:24.189Z,67.50
2023-02-19T17:51:57.174Z,67.66
2023-02-19T17:53:28.926Z,67.73
2023-02-19T17:55:00.516Z,68.18
2023-02-19T17:56:32.177Z,68.39
2023-02-19T17:58:03.807Z,67.79
2023-02-19T17:59:35.738Z,67.85
2023-02-19T18:01:07.403Z,67.58
2023-02-19T18:02:39.062Z,67.91
2023-02-19T18:04:10.941Z,67.95
2023-02-19T18:05:42.731Z,68.12
2023-02-19T18:07:15.718Z,68.22
2023-02-19T18:08:47.983Z,67.89
2023-02-19T18:10:20.364Z,67.87
2023-02-19T18:11:51.956Z,67.77
2023-02-19T18:13:23.650Z,67.62
2023-02-19T18:14:56.611Z,67.70
2023-02-19T18:16:28.194Z,67.09
2023-02-19T18:17:59.860Z,67.46
2023-02-19T18:19:31.541Z,67.37
2023-02-19T18:21:03.241Z,67.49
2023-02-19T18:22:36.488Z,67.74
2023-02-19T18:24:08.127Z,68.10
2023-02-19T18:25:39.711Z,68.45
2023-02-19T18:27:11.304Z,68.74
2023-02-19T18:28:42.877Z,69.29
2023-02-19T18:30:16.836Z,69.58
2023-02-19T18:31:48.568Z,69.65
2023-02-19T18:33:20.213Z,69.83
2023-02-19T18:34:52.831Z,70.64
2023-02-19T18:36:24.451Z,70.20
2023-02-19T18:37:57.488Z,70.68
2023-02-19T18:39:29.102Z,70.03
2023-02-19T18:41:00.725Z,70.16
2023-02-19T18:42:32.493Z,70.08
2023-02-19T18:44:05.599Z,70.41
2023-02-19T18:45:37.291Z,70.64
2023-02-19T18:47:09.505Z,70.67
2023-02-19T18:48:41.093Z,70.82
2023-02-19T18:50:13.172Z,70.46
2023-02-19T18:51:45.839Z,70.49
2023-02-19T18:53:18.860Z,70.92
2023-02-19T18:54:51.711Z,70.93
2023-02-19T18:56:23.353Z,70.67
2023-02-19T18:57:54.971Z,70.64
2023-02-19T18:59:26.590Z,70.26
2023-02-19T19:01:01.630Z,70.41
2023-02-19T19:02:47.102Z,70.08
2023-02-19T19:04:21.138Z,69.89
2023-02-19T19:05:52.734Z,69.35
2023-02-19T19:07:24.289Z,69.67
2023-02-19T19:08:58.590Z,69.62
2023-02-19T19:10:30.915Z,69.49
2023-02-19T19:12:02.591Z,69.02
2023-02-19T19:13:34.172Z,68.96
2023-02-19T19:15:05.924Z,68.85
2023-02-19T19:16:37.523Z,68.75
2023-02-19T19:18:09.118Z,68.76
2023-02-19T19:19:42.772Z,68.84
2023-02-19T19:21:15.096Z,68.32
2023-02-19T19:22:48.598Z,68.56
2023-02-19T19:24:22.319Z,68.31
2023-02-19T19:25:54.744Z,68.38
2023-02-19T19:27:26.318Z,68.10
2023-02-19T19:28:58.076Z,67.76
2023-02-19T19:30:30.532Z,68.01
2023-02-19T19:32:02.320Z,67.86
2023-02-19T19:33:33.925Z,67.07
2023-02-19T19:35:05.585Z,67.68
2023-02-19T19:36:39.567Z,67.09
2023-02-19T19:38:11.125Z,67.29
2023-02-19T19:39:44.032Z,66.17
2023-02-19T19:41:16.092Z,65.68
2023-02-19T19:42:50.312Z,65.40
2023-02-19T19:44:21.900Z,64.88
2023-02-19T19:45:54.021Z,64.87
2023-02-19T19:47:25.637Z,64.89
2023-02-19T19:48:57.252Z,65.32
2023-02-19T19:50:28.826Z,65.52
2023-02-19T19:52:01.254Z,64.58
2023-02-19T19:53:33.187Z,64.63
2023-02-19T19:55:06.889Z,64.37
2023-02-19T19:56:41.136Z,64.36
2023-02-19T19:58:12.794Z,64.72
2023-02-19T19:59:47.880Z,64.68
2023-02-19T20:01:23.122Z,64.67
2023-02-19T20:02:55.011Z,64.99
2023-02-19T20:04:33.453Z,64.95
2023-02-19T20:06:05.421Z,65.06
2023-02-19T20:07:37.197Z,64.97
2023-02-19T20:09:08.982Z,64.91
2023-02-19T20:10:43.423Z,64.70
2023-02-19T20:12:16.447Z,64.53
2023-02-19T20:13:48.304Z,64.37
2023-02-19T20:15:20.635Z,64.31
2023-02-19T20:16:52.512Z,64.33
2023-02-19T20:18:25.933Z,64.99
2023-02-19T20:19:57.567Z,65.12